CST,Max TemperatureF,Mean TemperatureF,Min TemperatureF,Max Dew PointF,MeanDew PointF,Min DewpointF,Max Humidity, Mean Humidity, Min Humidity, Max Sea Level PressureIn, Mean Sea Level PressureIn, Min Sea Level PressureIn, Max VisibilityMiles, Mean VisibilityMiles, Min VisibilityMiles, Max Wind SpeedMPH, Mean Wind SpeedMPH, Max Gust SpeedMPH,PrecipitationIn, CloudCover, Events, WindDirDegrees
2012-11-1,82,66,50,41,38,35,61,40,18,30.01,29.95,29.90,10,10,10,13,10,,0.00,0,,210
2012-11-2,86,70,55,51,43,34,60,42,20,29.96,29.87,29.78,10,10,10,23,14,30,0.00,0,,208
2012-11-3,64,54,43,41,35,31,76,54,30,30.20,30.13,29.98,10,10,9,23,16,29,0.00,0,,22
2012-11-4,66,52,37,35,33,31,79,53,28,30.23,30.16,30.07,10,10,10,9,6,,0.00,0,,92
2012-11-5,68,56,43,37,33,30,68,43,25,30.17,30.12,30.07,10,10,10,23,12,30,0.00,0,,344
2012-11-6,75,57,39,37,35,32,79,48,24,30.19,30.13,30.07,10,10,10,23,9,23,0.00,0,,51
2012-11-7,72,58,43,38,34,32,76,47,23,30.21,30.10,29.97,10,10,9,21,7,25,0.00,0,,168
2012-11-8,79,65,51,53,45,35,61,49,36,29.96,29.87,29.79,10,10,10,24,19,33,0.00,0,,175
2012-11-9,81,70,59,55,53,50,78,56,36,29.83,29.78,29.70,10,10,10,26,20,36,0.00,0,,180
2012-11-10,79,70,61,57,55,53,81,61,44,29.81,29.71,29.60,10,10,10,34,22,47,0.00,1,,173
2012-11-11,64,46,28,52,36,21,83,68,49,30.35,29.96,29.69,10,10,4,23,11,31,0.14,5,Rain-Thunderstorm,353
2012-11-12,53,40,26,27,23,18,81,58,27,30.52,30.46,30.36,10,10,10,12,7,,0.00,0,,230
2012-11-13,54,41,28,24,21,15,78,48,22,30.49,30.39,30.29,10,10,10,20,10,26,0.00,0,,184
2012-11-14,60,46,32,28,24,21,64,45,26,30.37,30.29,30.22,10,10,10,16,12,,0.00,0,,191
2012-11-15,61,48,36,41,32,24,82,57,39,30.36,30.25,30.19,10,10,10,15,11,,0.00,0,,163
2012-11-16,61,48,36,39,35,31,93,64,38,30.43,30.37,30.32,10,10,7,12,6,,0.00,0,,139
2012-11-17,64,50,37,37,31,27,73,50,34,30.35,30.27,30.19,10,10,10,21,14,31,0.00,0,,167
2012-11-18,66,57,48,50,38,28,75,51,39,30.18,30.12,30.04,10,10,10,30,19,37,0.00,1,,177
2012-11-19,71,60,48,52,49,46,96,75,47,30.16,30.10,30.05,10,10,8,20,13,,0.00,0,,179
2012-11-20,73,58,44,51,46,43,97,74,39,30.26,30.20,30.15,10,8,2,9,6,,0.00,0,,55
2012-11-21,73,58,42,50,44,37,93,62,29,30.23,30.13,29.98,10,10,7,23,11,31,0.00,0,,182
2012-11-22,78,66,53,50,42,25,75,47,20,30.27,29.98,29.86,10,10,2,32,18,40,0.00,0,,231
2012-11-23,54,45,36,33,24,18,56,43,27,30.56,30.47,30.30,10,10,10,20,14,28,0.00,0,,15
2012-11-24,61,46,30,25,21,19,64,40,20,30.43,30.19,29.96,10,10,10,24,15,32,0.00,0,,187
2012-11-25,62,48,35,35,29,22,76,51,35,29.93,29.87,29.82,10,10,10,17,9,,0.00,0,,116
2012-11-26,52,43,30,31,27,19,76,59,37,30.43,30.14,29.86,10,10,10,29,18,37,0.00,0,,4
2012-11-27,50,37,24,27,24,21,88,63,38,30.50,30.39,30.30,10,9,5,18,11,18,0.00,0,,172
2012-11-28,64,47,30,38,32,25,79,56,33,30.33,30.24,30.11,10,10,10,22,14,28,0.00,0,,170
2012-11-29,66,54,43,45,41,37,82,63,40,30.11,30.04,29.95,10,10,10,24,18,30,0.00,0,,181
2012-11-30,64,52,39,49,43,33,100,80,42,30.05,29.99,29.90,10,6,0,17,10,,0.00,1,Fog-Rain,153